sensor_id;sensor_type;location;lat;lon;timestamp;P1;durP1;ratioP1;P2;durP2;ratioP2
19347;SDS011;9810;52.480;9.806;2023-03-16T00:00:01;8.97;;;2.83;;
19347;SDS011;9810;52.480;9.806;2023-03-16T00:02:33;9.30;;;2.80;;
19347;SDS011;9810;52.480;9.806;2023-03-16T00:05:03;5.07;;;3.73;;
19347;SDS011;9810;52.480;9.806;2023-03-16T00:07:33;7.00;;;3.13;;
19347;SDS011;9810;52.480;9.806;2023-03-16T00:10:01;10.90;;;2.90;;
19347;SDS011;9810;52.480;9.806;2023-03-16T00:12:29;3.47;;;2.50;;
19347;SDS011;9810;52.480;9.806;2023-03-16T00:14:59;10.23;;;3.23;;
19347;SDS011;9810;52.480;9.806;2023-03-16T00:17:28;7.33;;;2.70;;
19347;SDS011;9810;52.480;9.806;2023-03-16T00:19:56;8.63;;;2.60;;
19347;SDS011;9810;52.480;9.806;2023-03-16T00:22:24;6.27;;;2.63;;
19347;SDS011;9810;52.480;9.806;2023-03-16T00:24:54;9.10;;;3.50;;
19347;SDS011;9810;52.480;9.806;2023-03-16T00:27:22;8.20;;;3.27;;
19347;SDS011;9810;52.480;9.806;2023-03-16T00:29:54;4.47;;;2.60;;
19347;SDS011;9810;52.480;9.806;2023-03-16T00:32:23;7.40;;;2.60;;
19347;SDS011;9810;52.480;9.806;2023-03-16T00:34:52;6.67;;;2.80;;
19347;SDS011;9810;52.480;9.806;2023-03-16T00:37:20;6.80;;;2.77;;
19347;SDS011;9810;52.480;9.806;2023-03-16T00:39:49;4.53;;;2.70;;
19347;SDS011;9810;52.480;9.806;2023-03-16T00:42:18;5.80;;;2.33;;
19347;SDS011;9810;52.480;9.806;2023-03-16T00:44:47;7.17;;;2.40;;
19347;SDS011;9810;52.480;9.806;2023-03-16T00:47:21;8.70;;;2.70;;
19347;SDS011;9810;52.480;9.806;2023-03-16T00:49:50;14.87;;;2.80;;
19347;SDS011;9810;52.480;9.806;2023-03-16T00:52:18;8.80;;;2.53;;
19347;SDS011;9810;52.480;9.806;2023-03-16T00:54:47;7.07;;;2.43;;
19347;SDS011;9810;52.480;9.806;2023-03-16T00:57:19;3.23;;;1.93;;
19347;SDS011;9810;52.480;9.806;2023-03-16T00:59:48;8.73;;;2.70;;
19347;SDS011;9810;52.480;9.806;2023-03-16T01:02:17;7.17;;;2.43;;
19347;SDS011;9810;52.480;9.806;2023-03-16T01:04:47;3.97;;;2.30;;
19347;SDS011;9810;52.480;9.806;2023-03-16T01:07:16;7.83;;;2.43;;
19347;SDS011;9810;52.480;9.806;2023-03-16T01:09:43;4.73;;;2.10;;
19347;SDS011;9810;52.480;9.806;2023-03-16T01:12:12;5.70;;;2.27;;
19347;SDS011;9810;52.480;9.806;2023-03-16T01:14:42;6.07;;;2.17;;
19347;SDS011;9810;52.480;9.806;2023-03-16T01:17:10;9.93;;;2.70;;
19347;SDS011;9810;52.480;9.806;2023-03-16T01:19:39;7.50;;;2.67;;
19347;SDS011;9810;52.480;9.806;2023-03-16T01:22:07;10.43;;;2.70;;
19347;SDS011;9810;52.480;9.806;2023-03-16T01:24:36;7.60;;;2.77;;
19347;SDS011;9810;52.480;9.806;2023-03-16T01:27:04;6.60;;;2.50;;
19347;SDS011;9810;52.480;9.806;2023-03-16T01:29:33;6.80;;;3.03;;
19347;SDS011;9810;52.480;9.806;2023-03-16T01:32:06;5.20;;;2.67;;
19347;SDS011;9810;52.480;9.806;2023-03-16T01:34:36;6.47;;;2.47;;
19347;SDS011;9810;52.480;9.806;2023-03-16T01:37:03;8.20;;;2.67;;
19347;SDS011;9810;52.480;9.806;2023-03-16T01:39:31;4.50;;;2.00;;
19347;SDS011;9810;52.480;9.806;2023-03-16T01:41:58;5.73;;;2.30;;
19347;SDS011;9810;52.480;9.806;2023-03-16T01:44:26;7.70;;;2.47;;
19347;SDS011;9810;52.480;9.806;2023-03-16T01:46:56;8.37;;;2.67;;
19347;SDS011;9810;52.480;9.806;2023-03-16T01:49:27;1.93;;;1.83;;
19347;SDS011;9810;52.480;9.806;2023-03-16T01:52:01;11.93;;;2.60;;
19347;SDS011;9810;52.480;9.806;2023-03-16T01:54:35;6.67;;;3.23;;
19347;SDS011;9810;52.480;9.806;2023-03-16T01:57:07;4.20;;;2.20;;
19347;SDS011;9810;52.480;9.806;2023-03-16T01:59:36;7.27;;;2.87;;
19347;SDS011;9810;52.480;9.806;2023-03-16T02:02:08;6.47;;;2.40;;
19347;SDS011;9810;52.480;9.806;2023-03-16T02:04:47;6.37;;;1.90;;
19347;SDS011;9810;52.480;9.806;2023-03-16T02:07:18;2.80;;;2.37;;
19347;SDS011;9810;52.480;9.806;2023-03-16T02:09:49;5.10;;;2.10;;
19347;SDS011;9810;52.480;9.806;2023-03-16T02:12:20;4.17;;;1.97;;
19347;SDS011;9810;52.480;9.806;2023-03-16T02:14:48;5.77;;;2.07;;
19347;SDS011;9810;52.480;9.806;2023-03-16T02:17:17;4.10;;;2.03;;
19347;SDS011;9810;52.480;9.806;2023-03-16T02:19:50;7.43;;;2.17;;
19347;SDS011;9810;52.480;9.806;2023-03-16T02:22:25;5.67;;;2.10;;
19347;SDS011;9810;52.480;9.806;2023-03-16T02:24:53;9.87;;;2.57;;
19347;SDS011;9810;52.480;9.806;2023-03-16T02:27:23;7.80;;;2.37;;
19347;SDS011;9810;52.480;9.806;2023-03-16T02:32:51;3.53;;;2.00;;
19347;SDS011;9810;52.480;9.806;2023-03-16T02:35:33;7.00;;;2.23;;
19347;SDS011;9810;52.480;9.806;2023-03-16T02:38:03;4.23;;;2.20;;
19347;SDS011;9810;52.480;9.806;2023-03-16T02:40:35;8.73;;;2.00;;
19347;SDS011;9810;52.480;9.806;2023-03-16T02:43:04;5.53;;;2.33;;
19347;SDS011;9810;52.480;9.806;2023-03-16T02:45:44;10.80;;;2.57;;
19347;SDS011;9810;52.480;9.806;2023-03-16T02:48:16;9.43;;;2.70;;
19347;SDS011;9810;52.480;9.806;2023-03-16T02:50:53;6.30;;;2.20;;
19347;SDS011;9810;52.480;9.806;2023-03-16T02:53:21;4.47;;;2.37;;
19347;SDS011;9810;52.480;9.806;2023-03-16T02:55:51;4.07;;;2.17;;
19347;SDS011;9810;52.480;9.806;2023-03-16T02:58:18;5.60;;;1.90;;
19347;SDS011;9810;52.480;9.806;2023-03-16T03:03:35;5.90;;;2.33;;
19347;SDS011;9810;52.480;9.806;2023-03-16T03:06:03;4.57;;;2.10;;
19347;SDS011;9810;52.480;9.806;2023-03-16T03:08:30;5.23;;;2.20;;
19347;SDS011;9810;52.480;9.806;2023-03-16T03:10:59;8.20;;;2.47;;
19347;SDS011;9810;52.480;9.806;2023-03-16T03:13:27;4.77;;;2.47;;
19347;SDS011;9810;52.480;9.806;2023-03-16T03:15:55;7.00;;;2.23;;
19347;SDS011;9810;52.480;9.806;2023-03-16T03:18:24;3.37;;;2.03;;
19347;SDS011;9810;52.480;9.806;2023-03-16T03:21:00;7.03;;;2.20;;
19347;SDS011;9810;52.480;9.806;2023-03-16T03:23:32;6.23;;;1.90;;
19347;SDS011;9810;52.480;9.806;2023-03-16T03:26:15;8.27;;;2.30;;
19347;SDS011;9810;52.480;9.806;2023-03-16T03:28:59;6.97;;;1.97;;
19347;SDS011;9810;52.480;9.806;2023-03-16T03:31:29;5.93;;;1.77;;
19347;SDS011;9810;52.480;9.806;2023-03-16T03:33:58;2.80;;;2.27;;
19347;SDS011;9810;52.480;9.806;2023-03-16T03:36:30;3.73;;;1.80;;
19347;SDS011;9810;52.480;9.806;2023-03-16T03:39:00;3.37;;;2.17;;
19347;SDS011;9810;52.480;9.806;2023-03-16T03:41:35;3.23;;;1.77;;
19347;SDS011;9810;52.480;9.806;2023-03-16T03:44:03;4.33;;;1.97;;
19347;SDS011;9810;52.480;9.806;2023-03-16T03:46:34;3.00;;;2.13;;
19347;SDS011;9810;52.480;9.806;2023-03-16T03:49:06;6.00;;;2.17;;
19347;SDS011;9810;52.480;9.806;2023-03-16T03:51:35;3.53;;;2.20;;
19347;SDS011;9810;52.480;9.806;2023-03-16T03:54:08;5.80;;;2.00;;
19347;SDS011;9810;52.480;9.806;2023-03-16T03:56:40;6.03;;;2.50;;
19347;SDS011;9810;52.480;9.806;2023-03-16T03:59:07;6.37;;;2.27;;
19347;SDS011;9810;52.480;9.806;2023-03-16T04:01:36;4.60;;;2.40;;
19347;SDS011;9810;52.480;9.806;2023-03-16T04:04:08;6.00;;;1.83;;
19347;SDS011;9810;52.480;9.806;2023-03-16T04:06:37;7.03;;;2.17;;
19347;SDS011;9810;52.480;9.806;2023-03-16T04:09:07;5.30;;;2.20;;
19347;SDS011;9810;52.480;9.806;2023-03-16T04:11:35;5.97;;;2.30;;
19347;SDS011;9810;52.480;9.806;2023-03-16T04:14:14;4.40;;;2.00;;
19347;SDS011;9810;52.480;9.806;2023-03-16T04:16:51;9.97;;;1.53;;
19347;SDS011;9810;52.480;9.806;2023-03-16T04:19:32;4.17;;;1.70;;
19347;SDS011;9810;52.480;9.806;2023-03-16T04:22:03;4.87;;;2.07;;
19347;SDS011;9810;52.480;9.806;2023-03-16T04:24:32;4.83;;;2.33;;
19347;SDS011;9810;52.480;9.806;2023-03-16T04:27:14;5.20;;;1.90;;
19347;SDS011;9810;52.480;9.806;2023-03-16T04:32:51;6.30;;;2.57;;
19347;SDS011;9810;52.480;9.806;2023-03-16T04:35:21;5.93;;;1.87;;
19347;SDS011;9810;52.480;9.806;2023-03-16T04:37:49;6.43;;;2.37;;
19347;SDS011;9810;52.480;9.806;2023-03-16T04:40:17;3.73;;;1.77;;
19347;SDS011;9810;52.480;9.806;2023-03-16T04:42:45;4.10;;;1.93;;
19347;SDS011;9810;52.480;9.806;2023-03-16T04:45:16;7.93;;;2.33;;
19347;SDS011;9810;52.480;9.806;2023-03-16T04:47:43;6.93;;;2.40;;
19347;SDS011;9810;52.480;9.806;2023-03-16T04:50:13;2.63;;;1.90;;
19347;SDS011;9810;52.480;9.806;2023-03-16T04:52:43;9.33;;;2.30;;
19347;SDS011;9810;52.480;9.806;2023-03-16T04:55:12;4.53;;;2.00;;
19347;SDS011;9810;52.480;9.806;2023-03-16T04:57:41;13.13;;;2.40;;
19347;SDS011;9810;52.480;9.806;2023-03-16T05:00:12;12.13;;;2.20;;
19347;SDS011;9810;52.480;9.806;2023-03-16T05:02:44;6.80;;;2.10;;
19347;SDS011;9810;52.480;9.806;2023-03-16T05:05:14;4.00;;;1.90;;
19347;SDS011;9810;52.480;9.806;2023-03-16T05:07:45;5.83;;;2.10;;
19347;SDS011;9810;52.480;9.806;2023-03-16T05:10:13;11.73;;;2.13;;
19347;SDS011;9810;52.480;9.806;2023-03-16T05:12:47;5.00;;;1.70;;
19347;SDS011;9810;52.480;9.806;2023-03-16T05:15:15;4.10;;;2.10;;
19347;SDS011;9810;52.480;9.806;2023-03-16T05:17:43;3.10;;;2.07;;
19347;SDS011;9810;52.480;9.806;2023-03-16T05:20:11;5.13;;;2.30;;
19347;SDS011;9810;52.480;9.806;2023-03-16T05:22:44;15.20;;;2.23;;
19347;SDS011;9810;52.480;9.806;2023-03-16T05:25:12;8.13;;;2.20;;
19347;SDS011;9810;52.480;9.806;2023-03-16T05:27:41;9.93;;;2.30;;
19347;SDS011;9810;52.480;9.806;2023-03-16T05:30:14;4.50;;;2.37;;
19347;SDS011;9810;52.480;9.806;2023-03-16T05:32:44;11.00;;;2.67;;
19347;SDS011;9810;52.480;9.806;2023-03-16T05:35:14;6.93;;;2.20;;
19347;SDS011;9810;52.480;9.806;2023-03-16T05:37:49;3.87;;;2.30;;
19347;SDS011;9810;52.480;9.806;2023-03-16T05:40:18;5.67;;;2.20;;
19347;SDS011;9810;52.480;9.806;2023-03-16T05:42:47;7.40;;;2.10;;
19347;SDS011;9810;52.480;9.806;2023-03-16T05:45:33;8.03;;;3.13;;
19347;SDS011;9810;52.480;9.806;2023-03-16T05:48:04;5.20;;;2.47;;
19347;SDS011;9810;52.480;9.806;2023-03-16T05:50:31;5.83;;;2.20;;
19347;SDS011;9810;52.480;9.806;2023-03-16T05:55:50;10.60;;;2.93;;
19347;SDS011;9810;52.480;9.806;2023-03-16T05:58:18;7.33;;;2.70;;
19347;SDS011;9810;52.480;9.806;2023-03-16T06:00:47;5.60;;;2.37;;
19347;SDS011;9810;52.480;9.806;2023-03-16T06:03:16;8.30;;;3.07;;
19347;SDS011;9810;52.480;9.806;2023-03-16T06:05:44;7.30;;;3.03;;
19347;SDS011;9810;52.480;9.806;2023-03-16T06:08:14;9.17;;;3.43;;
19347;SDS011;9810;52.480;9.806;2023-03-16T06:10:45;10.40;;;3.23;;
19347;SDS011;9810;52.480;9.806;2023-03-16T06:13:13;9.67;;;2.40;;
19347;SDS011;9810;52.480;9.806;2023-03-16T06:15:42;14.80;;;3.33;;
19347;SDS011;9810;52.480;9.806;2023-03-16T06:18:09;10.70;;;3.10;;
19347;SDS011;9810;52.480;9.806;2023-03-16T06:20:39;14.07;;;2.90;;
19347;SDS011;9810;52.480;9.806;2023-03-16T06:23:10;4.83;;;2.57;;
19347;SDS011;9810;52.480;9.806;2023-03-16T06:25:39;9.07;;;2.37;;
19347;SDS011;9810;52.480;9.806;2023-03-16T06:28:08;5.90;;;2.50;;
19347;SDS011;9810;52.480;9.806;2023-03-16T06:30:40;5.93;;;1.77;;
19347;SDS011;9810;52.480;9.806;2023-03-16T06:33:07;10.07;;;2.20;;
19347;SDS011;9810;52.480;9.806;2023-03-16T06:35:34;3.40;;;1.80;;
19347;SDS011;9810;52.480;9.806;2023-03-16T06:38:02;7.20;;;2.47;;
19347;SDS011;9810;52.480;9.806;2023-03-16T06:40:30;6.63;;;1.80;;
19347;SDS011;9810;52.480;9.806;2023-03-16T06:42:59;5.03;;;2.20;;
19347;SDS011;9810;52.480;9.806;2023-03-16T06:45:27;7.97;;;2.57;;
19347;SDS011;9810;52.480;9.806;2023-03-16T06:47:54;3.90;;;2.03;;
19347;SDS011;9810;52.480;9.806;2023-03-16T06:50:25;7.57;;;3.50;;
19347;SDS011;9810;52.480;9.806;2023-03-16T06:52:52;2.80;;;1.93;;
19347;SDS011;9810;52.480;9.806;2023-03-16T06:55:20;5.20;;;2.40;;
19347;SDS011;9810;52.480;9.806;2023-03-16T06:57:48;10.20;;;2.33;;
19347;SDS011;9810;52.480;9.806;2023-03-16T07:00:18;10.40;;;2.83;;
19347;SDS011;9810;52.480;9.806;2023-03-16T07:02:46;4.07;;;2.20;;
19347;SDS011;9810;52.480;9.806;2023-03-16T07:05:14;7.90;;;2.00;;
19347;SDS011;9810;52.480;9.806;2023-03-16T07:07:43;7.57;;;2.30;;
19347;SDS011;9810;52.480;9.806;2023-03-16T07:10:12;6.03;;;2.13;;
19347;SDS011;9810;52.480;9.806;2023-03-16T07:12:41;5.80;;;1.70;;
19347;SDS011;9810;52.480;9.806;2023-03-16T07:15:09;6.50;;;1.67;;
19347;SDS011;9810;52.480;9.806;2023-03-16T07:17:39;5.60;;;1.70;;
19347;SDS011;9810;52.480;9.806;2023-03-16T07:20:08;3.63;;;1.57;;
19347;SDS011;9810;52.480;9.806;2023-03-16T07:22:37;5.93;;;1.83;;
19347;SDS011;9810;52.480;9.806;2023-03-16T07:25:06;3.53;;;2.03;;
19347;SDS011;9810;52.480;9.806;2023-03-16T07:27:35;3.20;;;1.57;;
19347;SDS011;9810;52.480;9.806;2023-03-16T07:30:03;5.40;;;1.93;;
19347;SDS011;9810;52.480;9.806;2023-03-16T07:32:33;2.57;;;1.57;;
19347;SDS011;9810;52.480;9.806;2023-03-16T07:35:05;4.93;;;1.87;;
19347;SDS011;9810;52.480;9.806;2023-03-16T07:37:33;7.03;;;2.17;;
19347;SDS011;9810;52.480;9.806;2023-03-16T07:40:01;3.97;;;1.87;;
19347;SDS011;9810;52.480;9.806;2023-03-16T07:42:29;9.17;;;2.70;;
19347;SDS011;9810;52.480;9.806;2023-03-16T07:44:56;6.23;;;1.80;;
19347;SDS011;9810;52.480;9.806;2023-03-16T07:47:24;5.47;;;2.07;;
19347;SDS011;9810;52.480;9.806;2023-03-16T07:49:52;4.07;;;2.10;;
19347;SDS011;9810;52.480;9.806;2023-03-16T07:52:22;8.87;;;2.43;;
19347;SDS011;9810;52.480;9.806;2023-03-16T07:54:49;4.80;;;2.43;;
19347;SDS011;9810;52.480;9.806;2023-03-16T07:57:17;7.00;;;2.30;;
19347;SDS011;9810;52.480;9.806;2023-03-16T07:59:45;3.67;;;2.20;;
19347;SDS011;9810;52.480;9.806;2023-03-16T08:02:13;4.97;;;2.10;;
19347;SDS011;9810;52.480;9.806;2023-03-16T08:04:41;6.67;;;1.87;;
19347;SDS011;9810;52.480;9.806;2023-03-16T08:07:09;4.40;;;2.13;;
19347;SDS011;9810;52.480;9.806;2023-03-16T08:09:40;3.97;;;1.80;;
19347;SDS011;9810;52.480;9.806;2023-03-16T08:12:08;5.17;;;2.20;;
19347;SDS011;9810;52.480;9.806;2023-03-16T08:14:37;8.17;;;2.10;;
19347;SDS011;9810;52.480;9.806;2023-03-16T08:17:05;10.07;;;2.70;;
19347;SDS011;9810;52.480;9.806;2023-03-16T08:19:33;5.37;;;1.70;;
19347;SDS011;9810;52.480;9.806;2023-03-16T08:22:01;6.93;;;2.80;;
19347;SDS011;9810;52.480;9.806;2023-03-16T08:24:29;4.17;;;1.70;;
19347;SDS011;9810;52.480;9.806;2023-03-16T08:26:59;5.67;;;2.10;;
19347;SDS011;9810;52.480;9.806;2023-03-16T08:29:27;4.20;;;1.90;;
19347;SDS011;9810;52.480;9.806;2023-03-16T08:31:55;5.90;;;2.23;;
19347;SDS011;9810;52.480;9.806;2023-03-16T08:34:23;6.93;;;1.77;;
19347;SDS011;9810;52.480;9.806;2023-03-16T08:36:50;3.20;;;2.10;;
19347;SDS011;9810;52.480;9.806;2023-03-16T08:39:19;6.40;;;1.97;;
19347;SDS011;9810;52.480;9.806;2023-03-16T08:41:47;5.57;;;2.43;;
19347;SDS011;9810;52.480;9.806;2023-03-16T08:44:21;3.97;;;1.80;;
19347;SDS011;9810;52.480;9.806;2023-03-16T08:46:50;6.07;;;2.37;;
19347;SDS011;9810;52.480;9.806;2023-03-16T08:49:18;4.60;;;1.90;;
19347;SDS011;9810;52.480;9.806;2023-03-16T08:51:46;3.07;;;1.50;;
19347;SDS011;9810;52.480;9.806;2023-03-16T08:54:13;5.47;;;2.07;;
19347;SDS011;9810;52.480;9.806;2023-03-16T08:56:45;6.70;;;1.57;;
19347;SDS011;9810;52.480;9.806;2023-03-16T08:59:13;3.03;;;1.47;;
19347;SDS011;9810;52.480;9.806;2023-03-16T09:01:45;5.33;;;1.70;;
19347;SDS011;9810;52.480;9.806;2023-03-16T09:04:13;5.80;;;1.87;;
19347;SDS011;9810;52.480;9.806;2023-03-16T09:06:40;6.93;;;1.93;;
19347;SDS011;9810;52.480;9.806;2023-03-16T09:09:11;4.03;;;1.83;;
19347;SDS011;9810;52.480;9.806;2023-03-16T09:11:42;2.57;;;1.70;;
19347;SDS011;9810;52.480;9.806;2023-03-16T09:14:11;4.00;;;1.87;;
19347;SDS011;9810;52.480;9.806;2023-03-16T09:16:40;3.47;;;2.13;;
19347;SDS011;9810;52.480;9.806;2023-03-16T09:19:10;5.27;;;1.70;;
19347;SDS011;9810;52.480;9.806;2023-03-16T09:21:39;7.23;;;1.73;;
19347;SDS011;9810;52.480;9.806;2023-03-16T09:24:09;5.07;;;1.53;;
19347;SDS011;9810;52.480;9.806;2023-03-16T09:26:40;3.47;;;1.40;;
19347;SDS011;9810;52.480;9.806;2023-03-16T09:29:10;6.90;;;2.10;;
19347;SDS011;9810;52.480;9.806;2023-03-16T09:31:38;4.93;;;1.70;;
19347;SDS011;9810;52.480;9.806;2023-03-16T09:34:07;2.77;;;1.10;;
19347;SDS011;9810;52.480;9.806;2023-03-16T09:36:37;2.50;;;1.20;;
19347;SDS011;9810;52.480;9.806;2023-03-16T09:39:06;3.60;;;1.50;;
19347;SDS011;9810;52.480;9.806;2023-03-16T09:41:40;5.43;;;1.83;;
19347;SDS011;9810;52.480;9.806;2023-03-16T09:47:04;4.23;;;1.17;;
19347;SDS011;9810;52.480;9.806;2023-03-16T09:49:36;3.47;;;1.10;;
19347;SDS011;9810;52.480;9.806;2023-03-16T09:52:11;3.03;;;1.00;;
19347;SDS011;9810;52.480;9.806;2023-03-16T09:55:02;1.93;;;1.00;;
19347;SDS011;9810;52.480;9.806;2023-03-16T09:58:09;3.07;;;1.60;;
19347;SDS011;9810;52.480;9.806;2023-03-16T10:03:51;3.27;;;1.00;;
19347;SDS011;9810;52.480;9.806;2023-03-16T10:06:31;4.87;;;1.30;;
19347;SDS011;9810;52.480;9.806;2023-03-16T10:09:11;3.00;;;1.10;;
19347;SDS011;9810;52.480;9.806;2023-03-16T10:11:57;2.33;;;1.03;;
19347;SDS011;9810;52.480;9.806;2023-03-16T10:14:28;2.80;;;1.07;;
19347;SDS011;9810;52.480;9.806;2023-03-16T10:17:08;3.20;;;1.00;;
19347;SDS011;9810;52.480;9.806;2023-03-16T10:19:41;4.73;;;1.03;;
19347;SDS011;9810;52.480;9.806;2023-03-16T10:22:18;2.97;;;1.23;;
19347;SDS011;9810;52.480;9.806;2023-03-16T10:24:54;2.40;;;1.10;;
19347;SDS011;9810;52.480;9.806;2023-03-16T10:27:33;2.40;;;1.00;;
19347;SDS011;9810;52.480;9.806;2023-03-16T10:33:23;1.60;;;0.80;;
19347;SDS011;9810;52.480;9.806;2023-03-16T10:35:54;2.70;;;1.10;;
19347;SDS011;9810;52.480;9.806;2023-03-16T10:38:39;5.13;;;1.10;;
19347;SDS011;9810;52.480;9.806;2023-03-16T10:41:33;3.27;;;1.20;;
19347;SDS011;9810;52.480;9.806;2023-03-16T10:44:07;2.60;;;0.90;;
19347;SDS011;9810;52.480;9.806;2023-03-16T10:46:42;2.23;;;0.70;;
19347;SDS011;9810;52.480;9.806;2023-03-16T10:49:19;3.90;;;1.10;;
19347;SDS011;9810;52.480;9.806;2023-03-16T10:51:50;2.50;;;0.97;;
19347;SDS011;9810;52.480;9.806;2023-03-16T10:54:26;3.23;;;1.00;;
19347;SDS011;9810;52.480;9.806;2023-03-16T10:59:52;8.17;;;1.27;;
19347;SDS011;9810;52.480;9.806;2023-03-16T11:02:24;2.20;;;0.70;;
19347;SDS011;9810;52.480;9.806;2023-03-16T11:05:11;2.37;;;0.93;;
19347;SDS011;9810;52.480;9.806;2023-03-16T11:07:46;1.73;;;1.00;;
19347;SDS011;9810;52.480;9.806;2023-03-16T11:10:23;1.87;;;0.87;;
19347;SDS011;9810;52.480;9.806;2023-03-16T11:12:59;1.30;;;0.90;;
19347;SDS011;9810;52.480;9.806;2023-03-16T11:15:42;4.07;;;0.97;;
19347;SDS011;9810;52.480;9.806;2023-03-16T11:18:19;3.70;;;1.07;;
19347;SDS011;9810;52.480;9.806;2023-03-16T11:20:57;2.60;;;1.13;;
19347;SDS011;9810;52.480;9.806;2023-03-16T11:23:31;1.20;;;1.10;;
19347;SDS011;9810;52.480;9.806;2023-03-16T11:26:03;1.67;;;1.07;;
19347;SDS011;9810;52.480;9.806;2023-03-16T11:28:45;4.73;;;1.20;;
19347;SDS011;9810;52.480;9.806;2023-03-16T11:31:19;2.73;;;1.00;;
19347;SDS011;9810;52.480;9.806;2023-03-16T11:33:56;3.60;;;1.20;;
19347;SDS011;9810;52.480;9.806;2023-03-16T11:36:31;3.17;;;1.07;;
19347;SDS011;9810;52.480;9.806;2023-03-16T11:39:12;1.90;;;0.80;;
19347;SDS011;9810;52.480;9.806;2023-03-16T11:41:51;2.03;;;0.97;;
19347;SDS011;9810;52.480;9.806;2023-03-16T11:44:34;2.97;;;1.00;;
19347;SDS011;9810;52.480;9.806;2023-03-16T11:47:15;2.47;;;1.30;;
19347;SDS011;9810;52.480;9.806;2023-03-16T11:49:56;2.23;;;0.80;;
19347;SDS011;9810;52.480;9.806;2023-03-16T11:52:35;3.30;;;1.00;;
19347;SDS011;9810;52.480;9.806;2023-03-16T11:55:17;2.70;;;0.80;;
19347;SDS011;9810;52.480;9.806;2023-03-16T11:57:58;3.70;;;1.00;;
19347;SDS011;9810;52.480;9.806;2023-03-16T12:00:38;1.80;;;0.70;;
19347;SDS011;9810;52.480;9.806;2023-03-16T12:03:31;3.13;;;0.87;;
19347;SDS011;9810;52.480;9.806;2023-03-16T12:06:22;2.60;;;0.77;;
19347;SDS011;9810;52.480;9.806;2023-03-16T12:12:07;1.83;;;1.00;;
19347;SDS011;9810;52.480;9.806;2023-03-16T12:14:48;5.37;;;1.03;;
19347;SDS011;9810;52.480;9.806;2023-03-16T12:17:34;4.27;;;1.00;;
19347;SDS011;9810;52.480;9.806;2023-03-16T12:20:06;3.33;;;1.10;;
19347;SDS011;9810;52.480;9.806;2023-03-16T12:22:43;2.93;;;0.90;;
19347;SDS011;9810;52.480;9.806;2023-03-16T12:25:16;1.63;;;0.80;;
19347;SDS011;9810;52.480;9.806;2023-03-16T12:27:51;2.17;;;0.93;;
19347;SDS011;9810;52.480;9.806;2023-03-16T12:31:33;1.47;;;0.70;;
19347;SDS011;9810;52.480;9.806;2023-03-16T12:33:34;4.53;;;0.87;;
19347;SDS011;9810;52.480;9.806;2023-03-16T12:36:19;3.97;;;1.20;;
19347;SDS011;9810;52.480;9.806;2023-03-16T12:39:16;1.83;;;0.97;;
19347;SDS011;9810;52.480;9.806;2023-03-16T12:42:05;2.73;;;0.90;;
19347;SDS011;9810;52.480;9.806;2023-03-16T12:44:52;1.30;;;1.20;;
19347;SDS011;9810;52.480;9.806;2023-03-16T12:47:25;4.10;;;1.33;;
19347;SDS011;9810;52.480;9.806;2023-03-16T12:50:03;1.73;;;0.90;;
19347;SDS011;9810;52.480;9.806;2023-03-16T12:52:40;1.83;;;0.80;;
19347;SDS011;9810;52.480;9.806;2023-03-16T12:55:12;2.47;;;0.90;;
19347;SDS011;9810;52.480;9.806;2023-03-16T12:57:42;2.77;;;0.80;;
19347;SDS011;9810;52.480;9.806;2023-03-16T13:00:12;0.90;;;0.90;;
19347;SDS011;9810;52.480;9.806;2023-03-16T13:02:41;1.07;;;0.80;;
19347;SDS011;9810;52.480;9.806;2023-03-16T13:05:28;2.80;;;1.10;;
19347;SDS011;9810;52.480;9.806;2023-03-16T13:08:07;2.33;;;1.43;;
19347;SDS011;9810;52.480;9.806;2023-03-16T13:10:36;2.83;;;1.00;;
19347;SDS011;9810;52.480;9.806;2023-03-16T13:13:09;2.83;;;0.87;;
19347;SDS011;9810;52.480;9.806;2023-03-16T13:15:39;1.77;;;1.13;;
19347;SDS011;9810;52.480;9.806;2023-03-16T13:18:19;2.87;;;0.93;;
19347;SDS011;9810;52.480;9.806;2023-03-16T13:20:54;3.57;;;1.20;;
19347;SDS011;9810;52.480;9.806;2023-03-16T13:23:28;2.07;;;0.90;;
19347;SDS011;9810;52.480;9.806;2023-03-16T13:26:25;1.90;;;0.90;;
19347;SDS011;9810;52.480;9.806;2023-03-16T13:29:16;3.90;;;1.30;;
19347;SDS011;9810;52.480;9.806;2023-03-16T13:31:49;2.47;;;1.37;;
19347;SDS011;9810;52.480;9.806;2023-03-16T13:34:20;1.73;;;1.13;;
19347;SDS011;9810;52.480;9.806;2023-03-16T13:36:56;2.47;;;0.97;;
19347;SDS011;9810;52.480;9.806;2023-03-16T13:39:26;3.27;;;1.00;;
19347;SDS011;9810;52.480;9.806;2023-03-16T13:41:57;2.43;;;0.87;;
19347;SDS011;9810;52.480;9.806;2023-03-16T13:44:26;2.40;;;1.00;;
19347;SDS011;9810;52.480;9.806;2023-03-16T13:46:56;3.43;;;0.90;;
19347;SDS011;9810;52.480;9.806;2023-03-16T13:49:28;0.90;;;0.73;;
19347;SDS011;9810;52.480;9.806;2023-03-16T13:52:10;1.90;;;1.10;;
19347;SDS011;9810;52.480;9.806;2023-03-16T13:54:40;6.70;;;1.20;;
19347;SDS011;9810;52.480;9.806;2023-03-16T13:57:09;5.37;;;1.47;;
19347;SDS011;9810;52.480;9.806;2023-03-16T13:59:45;0.80;;;0.60;;
19347;SDS011;9810;52.480;9.806;2023-03-16T14:02:25;5.17;;;1.07;;
19347;SDS011;9810;52.480;9.806;2023-03-16T14:04:53;2.33;;;1.00;;
19347;SDS011;9810;52.480;9.806;2023-03-16T14:07:23;0.93;;;0.80;;
19347;SDS011;9810;52.480;9.806;2023-03-16T14:09:54;1.43;;;0.83;;
19347;SDS011;9810;52.480;9.806;2023-03-16T14:12:37;3.13;;;0.80;;
19347;SDS011;9810;52.480;9.806;2023-03-16T14:19:34;4.47;;;1.27;;
19347;SDS011;9810;52.480;9.806;2023-03-16T14:22:27;2.93;;;0.80;;
19347;SDS011;9810;52.480;9.806;2023-03-16T14:25:39;3.50;;;0.80;;
19347;SDS011;9810;52.480;9.806;2023-03-16T14:29:07;2.30;;;1.13;;
19347;SDS011;9810;52.480;9.806;2023-03-16T14:32:27;1.10;;;0.87;;
19347;SDS011;9810;52.480;9.806;2023-03-16T14:35:52;1.23;;;0.90;;
19347;SDS011;9810;52.480;9.806;2023-03-16T14:38:38;1.50;;;1.00;;
19347;SDS011;9810;52.480;9.806;2023-03-16T14:41:16;3.63;;;1.10;;
19347;SDS011;9810;52.480;9.806;2023-03-16T14:43:53;5.40;;;1.00;;
19347;SDS011;9810;52.480;9.806;2023-03-16T14:46:29;3.03;;;1.17;;
19347;SDS011;9810;52.480;9.806;2023-03-16T14:49:00;1.43;;;0.70;;
19347;SDS011;9810;52.480;9.806;2023-03-16T14:51:36;3.57;;;1.07;;
19347;SDS011;9810;52.480;9.806;2023-03-16T14:54:11;2.73;;;1.30;;
19347;SDS011;9810;52.480;9.806;2023-03-16T14:56:46;2.33;;;1.20;;
19347;SDS011;9810;52.480;9.806;2023-03-16T14:59:17;1.00;;;0.70;;
19347;SDS011;9810;52.480;9.806;2023-03-16T15:01:50;0.80;;;0.80;;
19347;SDS011;9810;52.480;9.806;2023-03-16T15:04:23;2.47;;;1.00;;
19347;SDS011;9810;52.480;9.806;2023-03-16T15:07:14;1.53;;;0.73;;
19347;SDS011;9810;52.480;9.806;2023-03-16T15:09:53;2.40;;;1.00;;
19347;SDS011;9810;52.480;9.806;2023-03-16T15:12:35;2.70;;;0.80;;
19347;SDS011;9810;52.480;9.806;2023-03-16T15:15:15;1.30;;;0.80;;
19347;SDS011;9810;52.480;9.806;2023-03-16T15:17:50;0.83;;;0.83;;
19347;SDS011;9810;52.480;9.806;2023-03-16T15:20:26;1.37;;;0.93;;
19347;SDS011;9810;52.480;9.806;2023-03-16T15:22:59;1.47;;;0.80;;
19347;SDS011;9810;52.480;9.806;2023-03-16T15:25:36;2.93;;;1.13;;
19347;SDS011;9810;52.480;9.806;2023-03-16T15:28:21;3.53;;;0.90;;
19347;SDS011;9810;52.480;9.806;2023-03-16T15:30:53;0.93;;;0.77;;
19347;SDS011;9810;52.480;9.806;2023-03-16T15:33:24;6.27;;;1.20;;
19347;SDS011;9810;52.480;9.806;2023-03-16T15:35:53;4.57;;;0.73;;
19347;SDS011;9810;52.480;9.806;2023-03-16T15:38:26;3.77;;;1.13;;
19347;SDS011;9810;52.480;9.806;2023-03-16T15:41:02;2.77;;;1.00;;
19347;SDS011;9810;52.480;9.806;2023-03-16T15:43:36;0.70;;;0.70;;
19347;SDS011;9810;52.480;9.806;2023-03-16T15:46:08;3.67;;;0.83;;
19347;SDS011;9810;52.480;9.806;2023-03-16T15:48:44;1.63;;;0.80;;
19347;SDS011;9810;52.480;9.806;2023-03-16T15:51:21;1.47;;;1.17;;
19347;SDS011;9810;52.480;9.806;2023-03-16T15:53:59;1.53;;;0.93;;
19347;SDS011;9810;52.480;9.806;2023-03-16T15:56:34;1.27;;;1.17;;
19347;SDS011;9810;52.480;9.806;2023-03-16T15:59:12;1.43;;;0.97;;
19347;SDS011;9810;52.480;9.806;2023-03-16T16:01:48;3.17;;;1.13;;
19347;SDS011;9810;52.480;9.806;2023-03-16T16:04:17;2.20;;;1.30;;
19347;SDS011;9810;52.480;9.806;2023-03-16T16:06:49;2.27;;;0.70;;